Time Latitude Longitude Accuracy (66% radius in meters) Altitude (meters) Speed (km/hour) Bearing (degrees) Battery (%) GPS flag
07:23:16 57.204662 60.121633 0 0 0 0 1 delete
07:23:15 57.204665 60.121630 0 0 0 0 1 delete
07:23:14 57.204667 60.121632 0 0 0 0 1 delete
07:23:13 57.204667 60.121640 0 0 0 0 1 delete
07:23:12 57.204667 60.121642 0 0 0 0 1 delete
07:23:11 57.204667 60.121638 0 0 0 0 1 delete
07:23:10 57.204667 60.121642 0 0 0 0 1 delete
07:23:09 57.204667 60.121645 0 0 0 0 1 delete
07:23:08 57.204668 60.121648 0 0 0 0 1 delete
07:23:07 57.204673 60.121652 0 0 0 0 1 delete
07:23:06 57.204680 60.121653 0 0 0 0 1 delete
07:23:05 57.204683 60.121650 0 0 0 0 1 delete
07:23:04 57.204688 60.121645 0 0 0 0 1 delete
07:23:03 57.204692 60.121640 0 0 0 0 1 delete
07:23:02 57.204693 60.121637 0 0 0 0 1 delete
07:23:01 57.204695 60.121637 0 0 0 0 1 delete
07:23:00 57.204693 60.121633 0 0 0 0 1 delete
07:22:59 57.204698 60.121632 0 0 0 0 1 delete
07:22:58 57.204700 60.121630 0 0 0 0 1 delete
07:22:57 57.204703 60.121632 0 0 0 0 1 delete
07:22:56 57.204707 60.121633 0 0 0 0 1 delete
07:22:55 57.204710 60.121632 0 0 0 0 1 delete
07:22:54 57.204713 60.121630 0 0 0 0 1 delete
07:22:53 57.204715 60.121630 0 0 0 0 1 delete
07:22:52 57.204717 60.121630 0 0 0 0 1 delete
07:22:51 57.204717 60.121628 0 0 0 0 1 delete
07:22:50 57.204722 60.121628 0 0 0 0 1 delete
07:22:49 57.204732 60.121623 0 0 0 0 1 delete
07:22:48 57.204738 60.121615 0 0 0 0 1 delete
07:22:47 57.204738 60.121608 0 0 0 0 1 delete
07:22:46 57.204735 60.121605 0 0 0 0 1 delete
07:22:45 57.204737 60.121600 0 0 0 0 1 delete
07:22:44 57.204743 60.121602 0 0 0 0 1 delete
07:22:43 57.204748 60.121600 0 0 0 0 1 delete
07:22:42 57.204752 60.121597 0 0 0 0 1 delete
07:22:41 57.204755 60.121595 0 0 0 0 1 delete
07:22:40 57.204758 60.121592 0 0 0 0 1 delete
07:22:39 57.204763 60.121585 0 0 0 0 1 delete
07:22:38 57.204767 60.121578 0 0 0 0 1 delete
07:22:37 57.204770 60.121575 0 0 0 0 1 delete
07:22:36 57.204775 60.121573 0 0 0 0 1 delete
07:22:35 57.204782 60.121572 0 0 0 0 1 delete
07:22:34 57.204793 60.121572 0 0 0 0 1 delete
07:22:33 57.204802 60.121575 0 0 0 0 1 delete
07:22:32 57.204808 60.121577 0 0 0 0 1 delete
07:22:31 57.204815 60.121578 0 0 0 0 1 delete
07:22:30 57.204820 60.121582 0 0 0 0 1 delete
07:22:29 57.204827 60.121587 0 0 0 0 1 delete
07:22:28 57.204830 60.121592 0 0 0 0 1 delete
07:22:27 57.204833 60.121598 0 0 0 0 1 delete